Time;durP1;ratioP1;P1;durP2;ratioP2;P2;SDS_P1;SDS_P2;PMS_P1;PMS_P2;Temp;Humidity;BMP_temperature;BMP_pressure;BME280_temperature;BME280_humidity;BME280_pressure;Samples;Min_cycle;Max_cycle;Signal;HPM_P1;HPM_P2
2023/06/08 00:00:00;;;;;;;23.52;9.40;;;;;;;15.85;70.21;99743.06;6133275;23;20332;-85
2023/06/08 00:02:28;;;;;;;33.22;10.60;;;;;;;16.05;70.51;99780.03;6183347;23;20096;-89
2023/06/08 00:04:54;;;;;;;24.20;10.25;;;;;;;16.02;70.93;99775.19;6134177;23;20524;-86
2023/06/08 00:07:21;;;;;;;27.37;11.23;;;;;;;16.01;71.00;99775.53;6184975;23;20024;-89
2023/06/08 00:09:47;;;;;;;32.25;10.20;;;;;;;16.04;71.07;99789.44;6160382;23;20048;-84
2023/06/08 00:12:13;;;;;;;26.80;10.52;;;;;;;16.06;70.91;99792.69;6187037;23;20021;-88
2023/06/08 00:14:39;;;;;;;30.40;9.90;;;;;;;15.81;70.57;99752.34;6186210;23;20104;-85
2023/06/08 00:17:08;;;;;;;29.55;9.48;;;;;;;15.90;70.55;99766.88;6188154;23;20355;-87
2023/06/08 00:19:36;;;;;;;21.77;10.27;;;;;;;15.71;70.81;99737.81;6196686;23;20064;-88
2023/06/08 00:22:07;;;;;;;33.53;10.18;;;;;;;15.83;70.89;99772.13;6212000;23;20227;-87
2023/06/08 00:24:34;;;;;;;16.25;7.05;;;;;;;15.61;68.91;99738.19;6189096;23;20107;-89
2023/06/08 00:27:00;;;;;;;;;;;;;;;15.92;65.69;99786.63;6161097;23;20447;-89
2023/06/08 00:29:26;;;;;;;19.67;9.43;;;;;;;15.97;69.40;99791.94;6186250;23;20258;-90
2023/06/08 00:31:53;;;;;;;35.88;10.50;;;;;;;15.97;69.85;99795.50;6187013;23;20033;-89
2023/06/08 00:34:19;;;;;;;22.38;8.82;;;;;;;15.92;70.68;99781.09;6184260;23;20023;-89
2023/06/08 00:36:45;;;;;;;15.15;8.70;;;;;;;15.77;70.17;99777.03;6184638;23;20454;-86
2023/06/08 00:39:13;;;;;;;26.35;9.18;;;;;;;15.68;70.25;99752.28;6160477;23;20112;-84
2023/06/08 00:41:39;;;;;;;21.70;9.83;;;;;;;15.90;70.48;99783.41;6135177;23;20024;-84
2023/06/08 00:44:06;;;;;;;20.60;9.37;;;;;;;15.97;70.30;99805.72;6184139;23;20072;-87
2023/06/08 00:46:34;;;;;;;16.88;7.78;;;;;;;15.92;69.22;99801.22;6197928;23;20252;-87
2023/06/08 00:49:03;;;;;;;25.50;9.50;;;;;;;15.95;69.68;99810.78;6158715;23;20014;-86
2023/06/08 00:51:36;;;;;;;24.30;10.15;;;;;;;15.70;70.37;99780.31;6153696;23;20027;-86
2023/06/08 00:54:02;;;;;;;26.13;10.25;;;;;;;15.71;70.68;99800.41;6152876;23;20125;-90
2023/06/08 00:56:31;;;;;;;17.10;9.57;;;;;;;15.45;70.59;99759.22;6105638;23;20048;-85
2023/06/08 00:59:03;;;;;;;30.95;10.77;;;;;;;15.57;70.40;99788.81;6130058;23;20252;-89
2023/06/08 01:01:30;;;;;;;23.92;9.85;;;;;;;15.47;71.15;99788.06;6104374;23;20506;-85
2023/06/08 01:04:05;;;;;;;20.02;9.85;;;;;;;15.41;70.44;99783.09;6128317;23;20017;-85
2023/06/08 01:06:39;;;;;;;17.73;8.90;;;;;;;15.64;70.23;99833.19;6105388;23;20021;-88
2023/06/08 01:09:24;;;;;;;24.85;9.52;;;;;;;15.62;70.08;99830.75;6129971;23;20429;-85
2023/06/08 01:11:58;;;;;;;20.88;9.65;;;;;;;15.54;70.96;99826.13;6105643;23;20367;-87
2023/06/08 01:14:38;;;;;;;24.92;9.95;;;;;;;15.57;70.38;99824.66;6154263;23;20017;-86
2023/06/08 01:17:09;;;;;;;24.90;9.60;;;;;;;15.46;70.33;99807.66;6127974;23;20029;-86
2023/06/08 01:19:52;;;;;;;21.45;9.70;;;;;;;15.55;71.19;99818.66;6129691;23;20053;-88
2023/06/08 01:22:38;;;;;;;19.85;9.35;;;;;;;15.53;70.51;99821.75;6154222;23;20021;-86
2023/06/08 01:25:08;;;;;;;20.83;9.45;;;;;;;15.49;70.16;99813.31;6129505;23;20017;-87
2023/06/08 01:27:36;;;;;;;18.23;8.30;;;;;;;15.46;67.86;99807.66;6182176;23;20028;-85
2023/06/08 01:30:07;;;;;;;22.85;8.02;;;;;;;15.72;66.83;99826.84;6186878;23;20049;-88
2023/06/08 01:32:34;;;;;;;21.13;7.43;;;;;;;15.81;66.90;99830.34;6160645;23;20083;-88
2023/06/08 01:35:00;;;;;;;;;;;;;;;15.96;66.76;99823.44;6185674;23;20020;-89
2023/06/08 01:37:55;;;;;;;31.65;7.85;;;;;;;16.03;66.14;99828.41;6184142;23;19923;-86
2023/06/08 01:40:49;;;;;;;33.85;8.57;;;;;;;15.88;66.97;99799.47;6129960;23;20017;-85
2023/06/08 01:43:17;;;;;;;19.65;8.40;;;;;;;15.99;67.45;99814.47;6186697;23;20025;-86
2023/06/08 01:45:50;;;;;;;22.73;7.88;;;;;;;15.72;67.11;99791.00;6184714;23;20343;-85
2023/06/08 01:48:20;;;;;;;13.98;7.20;;;;;;;15.69;67.95;99795.25;6159048;23;20760;-87
2023/06/08 01:50:50;;;;;;;21.50;8.02;;;;;;;15.81;68.10;99807.47;6160469;23;20029;-85
2023/06/08 01:53:17;;;;;;;17.58;7.85;;;;;;;15.86;67.57;99818.28;6186050;23;20388;-87
2023/06/08 01:55:47;;;;;;;18.73;8.25;;;;;;;15.73;68.06;99801.69;6184112;23;20100;-86
2023/06/08 01:58:13;;;;;;;22.88;8.25;;;;;;;15.63;68.26;99791.03;6184425;23;20075;-85
2023/06/08 02:00:41;;;;;;;20.35;8.93;;;;;;;15.93;67.96;99841.44;6133179;23;20017;-87
2023/06/08 02:03:07;;;;;;;21.98;8.57;;;;;;;15.96;68.00;99838.03;6186159;23;20079;-85
2023/06/08 02:05:34;;;;;;;17.20;8.27;;;;;;;15.94;68.10;99833.97;6183595;23;20017;-86
2023/06/08 02:08:00;;;;;;;20.77;7.88;;;;;;;15.83;67.99;99799.69;6184503;23;20021;-86
2023/06/08 02:10:28;;;;;;;26.25;8.85;;;;;;;16.01;68.88;99841.72;6183765;23;20015;-87
2023/06/08 02:12:54;;;;;;;16.50;8.63;;;;;;;15.91;69.25;99804.31;6184957;23;20025;-85
2023/06/08 02:15:20;;;;;;;23.48;8.60;;;;;;;16.03;69.41;99831.16;6159672;23;20027;-85
2023/06/08 02:17:46;;;;;;;25.43;9.13;;;;;;;16.02;69.08;99827.56;6184614;23;20017;-84
2023/06/08 02:20:13;;;;;;;;;;;;;;;16.03;68.76;99834.72;6186774;23;20040;-84
2023/06/08 02:22:40;;;;;;;20.42;9.55;;;;;;;16.10;67.33;99835.00;6185264;23;19916;-83
2023/06/08 02:25:09;;;;;;;22.80;8.77;;;;;;;16.22;67.38;99842.50;6159877;23;20063;-85
2023/06/08 02:27:38;;;;;;;23.58;9.75;;;;;;;16.22;66.48;99828.72;6185300;23;20044;-86
2023/06/08 02:30:07;;;;;;;21.52;8.90;;;;;;;16.22;65.24;99814.91;6159677;23;20066;-86
2023/06/08 02:32:34;;;;;;;39.90;9.50;;;;;;;16.30;64.83;99825.06;6183676;23;20068;-86
2023/06/08 02:35:01;;;;;;;17.20;9.07;;;;;;;16.41;64.40;99837.28;6184021;23;20020;-86
2023/06/08 02:37:30;;;;;;;20.50;9.10;;;;;;;16.27;63.42;99808.41;6184439;23;20072;-90
2023/06/08 02:39:57;;;;;;;32.75;10.32;;;;;;;16.32;63.16;99819.22;6185395;23;20067;-88
2023/06/08 02:42:23;;;;;;;15.53;9.40;;;;;;;16.53;63.46;99849.53;6190251;23;20075;-87
2023/06/08 02:44:49;;;;;;;17.83;9.48;;;;;;;16.47;63.38;99823.31;6163648;23;20351;-86
2023/06/08 02:47:17;;;;;;;19.58;9.30;;;;;;;16.44;63.41;99813.75;6184567;23;20021;-87
2023/06/08 02:49:45;;;;;;;18.73;9.45;;;;;;;16.66;63.64;99831.88;6159666;23;20115;-86
2023/06/08 02:52:11;;;;;;;22.73;11.23;;;;;;;16.57;63.60;99825.63;6183896;23;20100;-87
2023/06/08 02:54:37;;;;;;;20.88;10.32;;;;;;;16.47;63.43;99813.06;6184423;23;20060;-85
2023/06/08 02:57:03;;;;;;;20.00;8.55;;;;;;;16.55;63.94;99825.16;6159826;23;20359;-86
2023/06/08 02:59:36;;;;;;;25.08;10.45;;;;;;;16.34;63.64;99790.13;6161786;23;20021;-86
2023/06/08 03:02:03;;;;;;;19.38;9.20;;;;;;;16.72;63.63;99851.75;6186175;23;20048;-86
2023/06/08 03:04:31;;;;;;;19.50;10.43;;;;;;;16.73;63.71;99853.41;6202389;23;20031;-86
2023/06/08 03:07:01;;;;;;;19.30;10.38;;;;;;;16.47;63.83;99803.97;6202133;23;20044;-87
2023/06/08 03:09:29;;;;;;;23.27;10.32;;;;;;;16.58;63.52;99821.72;6188737;23;20071;-87
2023/06/08 03:11:58;;;;;;;20.45;11.32;;;;;;;16.81;63.78;99847.00;6162486;23;20021;-91
2023/06/08 03:14:29;;;;;;;25.02;10.57;;;;;;;16.66;63.68;99818.06;6136247;23;20021;-86
2023/06/08 03:17:03;;;;;;;29.00;10.43;;;;;;;16.92;63.78;99856.47;6185123;23;20028;-87
2023/06/08 03:19:34;;;;;;;23.63;10.25;;;;;;;16.61;63.90;99807.22;6187479;23;20017;-87
2023/06/08 03:22:06;;;;;;;22.40;10.43;;;;;;;16.82;63.87;99843.06;6186019;23;20098;-87
2023/06/08 03:24:38;;;;;;;26.98;10.38;;;;;;;16.79;64.02;99836.31;6138038;23;20021;-87
2023/06/08 03:27:06;;;;;;;21.92;10.80;;;;;;;16.90;63.71;99842.19;6186368;23;20051;-85
2023/06/08 03:29:33;;;;;;;20.98;10.50;;;;;;;16.89;63.69;99832.31;6188260;23;20017;-86
2023/06/08 03:32:03;;;;;;;16.52;9.90;;;;;;;16.87;63.20;99831.81;6184295;23;20019;-87
2023/06/08 03:34:30;;;;;;;24.25;11.10;;;;;;;16.97;63.59;99847.16;6185921;23;20636;-86
2023/06/08 03:37:03;;;;;;;18.10;11.18;;;;;;;17.00;63.58;99852.00;6186062;23;20024;-87
2023/06/08 03:39:31;;;;;;;21.38;10.75;;;;;;;17.06;63.76;99854.19;6162480;23;20021;-86
2023/06/08 03:41:58;;;;;;;27.38;12.23;;;;;;;17.10;63.40;99846.81;6188027;23;20075;-87
2023/06/08 03:44:26;;;;;;;19.08;10.82;;;;;;;17.36;63.86;99878.84;6188096;23;20196;-87
2023/06/08 03:46:52;;;;;;;24.67;11.20;;;;;;;17.16;62.81;99852.94;6186151;23;20443;-88
2023/06/08 03:49:18;;;;;;;23.45;11.73;;;;;;;17.01;63.22;99826.78;6186929;23;20263;-86
2023/06/08 03:51:45;;;;;;;27.03;11.40;;;;;;;16.99;63.04;99837.38;6186364;23;20013;-87
2023/06/08 03:54:11;;;;;;;29.42;10.63;;;;;;;17.30;62.82;99874.69;6161794;23;20391;-89
2023/06/08 03:56:37;;;;;;;20.98;11.02;;;;;;;17.24;63.28;99849.25;6186325;23;20013;-86
2023/06/08 03:59:04;;;;;;;21.90;10.88;;;;;;;17.25;63.23;99869.38;6185487;23;20089;-86
2023/06/08 04:01:35;;;;;;;27.92;11.18;;;;;;;17.34;63.69;99870.09;6185825;23;20036;-88
2023/06/08 04:04:03;;;;;;;22.67;11.63;;;;;;;17.51;63.72;99891.16;6136271;23;20112;-88
2023/06/08 04:06:33;;;;;;;46.05;11.95;;;;;;;17.45;63.82;99868.50;6162519;23;20016;-87
2023/06/08 04:09:00;;;;;;;20.02;11.13;;;;;;;17.42;62.95;99860.91;6137576;23;20017;-88
2023/06/08 04:11:30;;;;;;;26.65;11.45;;;;;;;17.40;63.48;99843.03;6189785;23;20028;-89
2023/06/08 04:13:56;;;;;;;19.25;11.18;;;;;;;17.45;63.06;99851.09;6165093;23;20040;-88
2023/06/08 04:16:23;;;;;;;26.50;12.20;;;;;;;17.61;63.03;99877.72;6190180;23;20070;-88
2023/06/08 04:18:53;;;;;;;26.23;12.18;;;;;;;17.82;63.29;99901.69;6192781;23;20360;-89
2023/06/08 04:21:25;;;;;;;31.77;12.90;;;;;;;17.85;63.48;99892.69;6191969;23;20023;-89
2023/06/08 04:23:51;;;;;;;26.92;12.57;;;;;;;17.95;62.48;99903.28;6189620;23;20444;-89
2023/06/08 04:26:24;;;;;;;26.02;12.35;;;;;;;17.70;62.79;99857.41;6188386;23;20052;-86
2023/06/08 04:28:51;;;;;;;30.70;12.40;;;;;;;17.89;63.26;99870.69;6165531;23;20070;-87
2023/06/08 04:31:22;;;;;;;29.70;13.13;;;;;;;17.82;62.65;99861.00;6190477;23;20052;-88
2023/06/08 04:33:51;;;;;;;25.15;12.88;;;;;;;17.87;62.42;99851.66;6192819;23;20079;-86
2023/06/08 04:36:19;;;;;;;26.15;12.85;;;;;;;18.25;62.26;99897.47;6190165;23;20354;-87
2023/06/08 04:38:47;;;;;;;28.75;13.45;;;;;;;18.00;61.80;99858.78;6168660;23;20040;-92
2023/06/08 04:41:18;;;;;;;27.75;14.20;;;;;;;18.07;62.54;99861.75;6190812;23;20096;-88
2023/06/08 04:43:49;;;;;;;28.77;14.02;;;;;;;17.95;62.85;99842.44;6186983;23;20017;-90
2023/06/08 04:46:25;;;;;;;29.80;14.38;;;;;;;18.17;63.00;99843.03;6192022;23;20075;-85
2023/06/08 04:48:55;;;;;;;43.65;15.10;;;;;;;18.64;63.01;99895.00;6135889;23;20017;-85
2023/06/08 04:51:29;;;;;;;32.83;15.60;;;;;;;18.54;62.01;99871.38;6185046;23;20099;-87
2023/06/08 04:53:56;;;;;;;40.67;15.85;;;;;;;18.36;61.41;99834.91;6188448;23;20017;-87
2023/06/08 04:56:29;;;;;;;35.78;15.40;;;;;;;18.50;61.34;99851.09;6193057;23;20088;-92
2023/06/08 04:58:56;;;;;;;34.30;15.63;;;;;;;18.40;61.68;99821.16;6169929;23;20017;-91
2023/06/08 05:01:32;;;;;;;;;;;;;;;18.89;61.91;99892.94;6199117;23;20017;-92
2023/06/08 05:04:07;;;;;;;28.73;14.38;;;;;;;18.98;61.40;99899.94;6198978;23;19931;-87
2023/06/08 05:06:35;;;;;;;39.13;15.05;;;;;;;18.74;61.44;99858.50;6193189;23;20075;-89
2023/06/08 05:09:08;;;;;;;32.92;15.32;;;;;;;18.98;61.24;99874.19;6171896;23;20013;-91
2023/06/08 05:11:36;;;;;;;46.58;16.80;;;;;;;18.88;60.03;99869.19;6175501;23;20028;-91
2023/06/08 05:14:04;;;;;;;32.20;15.77;;;;;;;18.82;60.81;99845.66;6198882;23;20330;-90
2023/06/08 05:16:39;;;;;;;35.47;14.90;;;;;;;19.14;60.05;99876.97;6173537;23;20257;-91
2023/06/08 05:19:08;;;;;;;32.83;13.48;;;;;;;19.32;59.04;99902.38;6151197;23;20113;-91
2023/06/08 05:21:37;;;;;;;27.45;12.75;;;;;;;19.56;58.79;99921.59;6172454;23;20040;-90
2023/06/08 05:24:28;;;;;;;47.53;13.95;;;;;;;19.47;57.31;99898.81;6177404;23;20091;-89
2023/06/08 05:26:55;;;;;;;39.87;14.63;;;;;;;19.28;57.04;99885.66;6193200;23;20028;-90
2023/06/08 05:29:28;;;;;;;32.42;13.25;;;;;;;19.63;57.95;99920.97;6193896;23;20249;-89
2023/06/08 05:31:54;;;;;;;38.03;12.27;;;;;;;19.44;55.56;99875.38;6144322;23;20032;-90
2023/06/08 05:34:20;;;;;;;;;;;;;;;19.82;55.81;99923.84;6194089;23;20021;-90
2023/06/08 05:36:46;;;;;;;25.70;12.13;;;;;;;19.73;56.22;99903.81;6136008;23;19917;-87
2023/06/08 05:39:12;;;;;;;32.57;11.83;;;;;;;19.61;54.38;99868.66;6107764;23;20090;-88
2023/06/08 05:41:39;;;;;;;22.10;9.03;;;;;;;19.49;50.99;99852.91;6107083;23;20022;-89
2023/06/08 05:44:05;;;;;;;27.55;9.88;;;;;;;19.79;51.22;99904.34;6109280;23;20030;-91
2023/06/08 05:46:30;;;;;;;23.20;11.73;;;;;;;19.83;50.68;99919.09;6108323;23;20058;-89
2023/06/08 05:49:23;;;;;;;31.02;10.88;;;;;;;19.99;53.20;99907.97;6117935;23;20036;-90
2023/06/08 05:51:49;;;;;;;17.52;10.82;;;;;;;19.81;54.30;99875.09;6138156;23;20017;-91
2023/06/08 05:54:15;;;;;;;22.50;10.47;;;;;;;20.06;52.76;99900.59;6150408;23;20022;-88
2023/06/08 05:56:42;;;;;;;23.17;9.67;;;;;;;20.17;51.34;99917.53;6092388;23;20587;-89
2023/06/08 05:59:08;;;;;;;23.17;10.05;;;;;;;19.69;50.61;99853.78;6111240;23;20257;-90
2023/06/08 06:01:34;;;;;;;19.30;9.70;;;;;;;19.84;50.34;99866.03;6139174;23;20033;-90
2023/06/08 06:04:01;;;;;;;19.92;9.10;;;;;;;20.04;49.81;99902.94;6116761;23;20018;-88
2023/06/08 06:06:53;;;;;;;17.33;7.85;;;;;;;20.00;49.87;99898.47;6121361;23;20049;-91
2023/06/08 06:09:19;;;;;;;16.13;9.57;;;;;;;20.12;50.09;99917.78;6144322;23;20067;-90
2023/06/08 06:11:47;;;;;;;16.90;7.00;;;;;;;20.22;45.76;99927.53;6167664;23;20100;-91
2023/06/08 06:14:40;;;;;;;19.10;6.20;;;;;;;20.25;44.79;99927.59;6175294;23;20021;-90
2023/06/08 06:17:07;;;;;;;9.60;4.93;;;;;;;20.08;41.89;99912.16;6173242;23;20037;-87
2023/06/08 06:19:36;;;;;;;20.58;5.32;;;;;;;19.99;43.06;99891.31;6204998;23;20068;-91
2023/06/08 06:22:08;;;;;;;13.38;5.30;;;;;;;20.27;43.46;99933.59;6179901;23;20021;-90
2023/06/08 06:24:35;;;;;;;9.43;4.28;;;;;;;19.99;39.45;99867.16;6147126;23;20019;-88
2023/06/08 06:27:09;;;;;;;10.02;4.43;;;;;;;20.16;41.33;99885.34;6145036;23;20047;-91
2023/06/08 06:29:59;;;;;;;11.82;4.88;;;;;;;20.44;40.06;99926.03;6143411;23;20017;-92
2023/06/08 06:32:24;;;;;;;13.90;4.47;;;;;;;20.04;40.57;99841.91;6130752;23;20025;-89
2023/06/08 06:35:40;;;;;;;18.92;5.78;;;;;;;20.58;42.74;99918.00;6081875;23;20538;-91
2023/06/08 06:38:31;;;;;;;12.15;5.90;;;;;;;20.65;41.93;99918.16;6096792;23;20099;-90
2023/06/08 06:41:26;;;;;;;8.40;5.32;;;;;;;20.39;42.83;99872.34;6117354;23;20033;-92
2023/06/08 06:44:42;;;;;;;10.85;5.30;;;;;;;20.89;43.65;99928.13;6089694;23;20014;-90
2023/06/08 06:56:40;;;;;;;12.73;6.38;;;;;;;20.79;45.38;99857.28;6166800;23;20029;-90
2023/06/08 06:59:06;;;;;;;11.05;5.90;;;;;;;20.91;43.90;99866.66;6139785;23;20410;-89
2023/06/08 07:01:53;;;;;;;10.23;5.53;;;;;;;21.17;44.06;99893.72;6138423;23;20033;-91
2023/06/08 07:04:21;;;;;;;18.88;6.47;;;;;;;20.87;44.85;99842.38;6116009;23;20028;-91
2023/06/08 07:07:01;;;;;;;15.00;7.55;;;;;;;21.02;42.40;99871.22;6144921;23;20021;-91
2023/06/08 07:09:38;;;;;;;9.43;6.10;;;;;;;21.32;41.82;99903.91;6164277;23;20017;-91
2023/06/08 07:12:05;;;;;;;16.52;6.55;;;;;;;21.22;42.33;99869.16;6139105;23;20044;-91
2023/06/08 07:14:34;;;;;;;17.00;6.53;;;;;;;21.31;42.04;99860.59;6143420;23;20024;-91
2023/06/08 07:17:01;;;;;;;8.40;5.60;;;;;;;21.51;42.85;99886.38;6148385;23;20021;-91
2023/06/08 07:19:28;;;;;;;13.98;6.55;;;;;;;21.55;40.03;99892.78;6122247;23;20017;-91
2023/06/08 07:21:54;;;;;;;20.15;6.80;;;;;;;21.41;40.89;99879.47;6123088;23;20017;-91
2023/06/08 07:24:36;;;;;;;20.98;6.78;;;;;;;21.52;41.11;99921.34;6118779;23;20101;-93
2023/06/08 07:27:06;;;;;;;14.95;6.00;;;;;;;21.58;41.58;99909.53;6141870;23;20018;-95
2023/06/08 07:29:36;;;;;;;21.38;7.22;;;;;;;21.31;42.23;99855.81;6116959;23;20027;-90
2023/06/08 07:32:07;;;;;;;18.17;6.10;;;;;;;21.34;40.44;99882.94;6141153;23;20074;-95
2023/06/08 07:34:55;;;;;;;16.67;6.18;;;;;;;21.40;40.70;99902.88;6169380;23;20039;-91
2023/06/08 07:37:22;;;;;;;15.60;6.63;;;;;;;21.20;40.05;99891.00;6169096;23;20025;-93
2023/06/08 07:39:50;;;;;;;14.13;6.17;;;;;;;21.40;38.78;99908.47;6165481;23;20383;-94
2023/06/08 07:42:16;;;;;;;18.60;6.93;;;;;;;21.32;39.04;99903.91;6116309;23;20017;-88
2023/06/08 07:44:43;;;;;;;11.83;6.43;;;;;;;21.54;39.31;99935.69;6118850;23;20091;-93
2023/06/08 07:47:17;;;;;;;15.55;6.80;;;;;;;21.50;39.09;99920.94;6117845;23;20109;-92
2023/06/08 07:49:53;;;;;;;19.52;6.72;;;;;;;21.51;38.74;99933.66;6163302;23;20068;-90
2023/06/08 07:52:19;;;;;;;17.00;6.10;;;;;;;21.15;39.25;99869.06;6154337;23;20352;-93
2023/06/08 07:55:44;;;;;;;20.63;6.72;;;;;;;21.65;38.56;99917.19;6120022;23;20014;-91
2023/06/08 07:58:10;;;;;;;25.15;6.90;;;;;;;21.38;39.43;99910.78;6139934;23;20021;-90
2023/06/08 08:00:37;;;;;;;13.90;6.45;;;;;;;21.30;39.55;99865.34;6155730;23;20029;-91
2023/06/08 08:03:59;;;;;;;11.63;6.20;;;;;;;21.86;39.02;99907.59;6169515;23;20076;-90
2023/06/08 08:06:26;;;;;;;13.27;5.53;;;;;;;21.48;37.60;99843.41;6169659;23;20086;-91
2023/06/08 08:09:36;;;;;;;24.60;6.80;;;;;;;21.69;37.70;99869.94;6146451;23;20487;-87
2023/06/08 08:12:44;;;;;;;;;;;;;;;21.84;37.34;99901.59;6174409;23;20021;-93
2023/06/08 08:15:11;;;;;;;16.10;5.88;;;;;;;22.03;39.37;99915.41;6148265;23;19990;-91
2023/06/08 08:17:40;;;;;;;11.05;5.70;;;;;;;21.71;37.00;99873.16;6089062;23;20006;-92
2023/06/08 08:20:35;;;;;;;15.35;5.45;;;;;;;22.13;38.95;99911.16;6093834;23;20026;-91
2023/06/08 08:23:02;;;;;;;14.48;6.45;;;;;;;21.70;36.38;99841.75;6115601;23;20022;-91
2023/06/08 08:25:53;;;;;;;;;;;;;;;22.08;38.56;99909.50;6096856;23;20062;-90
2023/06/08 08:29:20;;;;;;;12.27;5.55;;;;;;;22.03;37.91;99882.00;6144830;23;19921;-93
2023/06/08 08:31:52;;;;;;;8.18;5.25;;;;;;;21.63;38.02;99830.53;6033752;23;20072;-93
2023/06/08 08:34:22;;;;;;;22.45;7.20;;;;;;;21.87;37.91;99845.19;6047680;23;20243;-93
2023/06/08 08:36:54;;;;;;;22.17;6.43;;;;;;;22.26;36.97;99890.28;6236863;23;20019;-92
2023/06/08 08:39:58;;;;;;;16.77;6.18;;;;;;;22.00;36.74;99840.97;6189182;23;20052;-92
2023/06/08 08:43:27;;;;;;;21.35;6.05;;;;;;;22.45;34.54;99917.19;6206413;23;20090;-90
2023/06/08 08:48:47;;;;;;;20.33;5.75;;;;;;;21.96;35.91;99835.38;6132724;23;20032;-93
2023/06/08 08:51:18;;;;;;;16.17;5.70;;;;;;;22.09;36.21;99835.16;6075924;23;20026;-91
2023/06/08 08:54:00;;;;;;;24.90;6.22;;;;;;;22.61;33.45;99909.41;6122396;23;20044;-90
2023/06/08 08:56:37;;;;;;;14.18;5.80;;;;;;;22.49;34.70;99882.63;6158685;23;20025;-90
2023/06/08 08:59:05;;;;;;;18.15;5.72;;;;;;;22.51;34.01;99865.50;6192464;23;20025;-89
2023/06/08 09:02:10;;;;;;;14.10;5.60;;;;;;;22.69;35.61;99858.16;6011600;23;20027;-91
2023/06/08 09:05:03;;;;;;;17.23;6.03;;;;;;;22.94;34.20;99877.16;6009684;23;20023;-90
2023/06/08 09:08:04;;;;;;;24.75;5.93;;;;;;;22.79;34.35;99837.16;6029840;23;20023;-90
2023/06/08 09:11:22;;;;;;;12.55;5.47;;;;;;;23.26;34.18;99904.56;6049759;23;20016;-89
2023/06/08 09:14:25;;;;;;;14.70;5.20;;;;;;;23.15;32.04;99885.75;6038303;23;20019;-88
2023/06/08 09:17:01;;;;;;;7.57;4.68;;;;;;;22.64;32.28;99822.25;5996269;23;20026;-90
2023/06/08 09:19:56;;;;;;;10.77;4.68;;;;;;;22.66;35.18;99803.19;6015110;23;20027;-89
2023/06/08 09:22:29;;;;;;;9.60;4.65;;;;;;;23.08;34.40;99841.06;6026141;23;20050;-91
2023/06/08 09:24:57;;;;;;;17.60;5.68;;;;;;;23.18;34.54;99832.00;6005821;23;20026;-89
2023/06/08 09:27:31;;;;;;;11.10;5.40;;;;;;;23.11;32.65;99817.16;5976189;23;20030;-90
2023/06/08 09:30:26;;;;;;;14.63;4.80;;;;;;;23.45;33.31;99873.66;6006604;23;20024;-91
2023/06/08 09:32:52;;;;;;;12.90;5.13;;;;;;;23.05;33.14;99824.31;6059918;23;20011;-93
2023/06/08 09:35:45;;;;;;;12.80;4.57;;;;;;;23.42;34.86;99866.84;6025034;23;20140;-92
2023/06/08 09:38:18;;;;;;;19.75;4.78;;;;;;;23.16;31.85;99867.81;6056928;23;20069;-91
2023/06/08 09:41:12;;;;;;;30.63;6.50;;;;;;;22.53;33.06;99799.06;6201657;23;20032;-89
2023/06/08 09:43:49;;;;;;;22.05;5.50;;;;;;;22.52;31.92;99811.41;6179849;23;20044;-92
2023/06/08 09:49:53;;;;;;;19.13;6.00;;;;;;;22.55;34.59;99787.53;6205653;23;20073;-90
2023/06/08 09:52:35;;;;;;;18.80;5.38;;;;;;;23.06;34.88;99835.06;6159095;23;20057;-90
2023/06/08 09:55:11;;;;;;;12.75;5.20;;;;;;;23.05;35.59;99802.00;6168823;23;20045;-90
2023/06/08 09:57:41;;;;;;;22.17;5.43;;;;;;;23.55;35.25;99852.59;6179296;23;20486;-89
2023/06/08 10:00:14;;;;;;;28.08;7.07;;;;;;;23.79;34.98;99857.56;6199445;23;20078;-89
2023/06/08 10:03:27;;;;;;;22.48;4.93;;;;;;;23.86;33.19;99821.31;6206247;23;20017;-90
2023/06/08 10:06:19;;;;;;;10.43;5.07;;;;;;;24.11;31.08;99856.97;6088081;23;20030;-90
2023/06/08 10:08:49;;;;;;;18.20;5.40;;;;;;;23.85;30.84;99847.63;6057046;23;20025;-88
2023/06/08 10:11:18;;;;;;;28.50;5.70;;;;;;;23.58;32.64;99788.44;6080183;23;20029;-91
2023/06/08 10:13:50;;;;;;;12.15;5.22;;;;;;;23.78;32.40;99799.34;6079282;23;20038;-90
2023/06/08 10:16:26;;;;;;;15.00;5.57;;;;;;;23.99;32.45;99826.56;6056012;23;20025;-91
2023/06/08 10:19:02;;;;;;;13.15;5.53;;;;;;;23.88;31.47;99823.72;6083193;23;20022;-87
2023/06/08 10:21:37;;;;;;;13.35;5.47;;;;;;;23.68;31.60;99789.72;6091050;23;20025;-93
2023/06/08 10:32:55;;;;;;;8.73;4.57;;;;;;;23.61;34.18;99798.81;6266426;23;20028;-92
2023/06/08 10:35:27;;;;;;;18.73;5.55;;;;;;;23.85;34.75;99846.84;6175495;23;20026;-94
2023/06/08 10:43:35;;;;;;;12.50;4.85;;;;;;;23.65;34.36;99849.88;6196287;23;20029;-93
2023/06/08 10:46:04;;;;;;;10.25;4.80;;;;;;;23.59;33.75;99806.78;6089337;23;20582;-91
2023/06/08 10:48:47;;;;;;;9.20;4.80;;;;;;;23.51;33.48;99788.38;6042808;23;20045;-94
2023/06/08 10:51:48;;;;;;;8.90;5.35;;;;;;;23.59;34.06;99817.94;6036015;23;20256;-94
2023/06/08 10:54:22;;;;;;;13.23;6.00;;;;;;;23.49;33.35;99762.06;6063466;23;20114;-90
2023/06/08 10:56:52;;;;;;;11.25;6.10;;;;;;;23.74;33.81;99790.13;6033491;23;20074;-90
2023/06/08 10:59:37;;;;;;;14.68;5.07;;;;;;;23.62;33.09;99783.66;6059211;23;20018;-92
2023/06/08 11:02:35;;;;;;;11.80;5.22;;;;;;;23.91;32.25;99806.19;6085959;23;20026;-92
2023/06/08 11:05:05;;;;;;;15.50;6.68;;;;;;;24.27;32.16;99829.50;6072414;23;20022;-89
2023/06/08 11:07:31;;;;;;;;;;;;;;;24.35;30.81;99831.13;6080321;23;20022;-93
2023/06/08 11:10:02;;;;;;;16.90;5.40;;;;;;;24.00;31.24;99781.47;6075509;23;20000;-90
2023/06/08 11:12:31;;;;;;;24.25;6.53;;;;;;;24.11;31.97;99793.50;6082443;23;20505;-90
2023/06/08 11:15:00;;;;;;;9.90;5.45;;;;;;;24.19;30.56;99797.13;6083451;23;20105;-92
2023/06/08 11:17:27;;;;;;;12.90;6.03;;;;;;;24.24;30.46;99790.34;6086872;23;20049;-91
2023/06/08 11:19:54;;;;;;;8.98;5.45;;;;;;;24.41;30.81;99788.84;6085626;23;20421;-92
2023/06/08 11:22:23;;;;;;;21.13;6.10;;;;;;;24.30;30.66;99774.81;6084675;23;19999;-93
2023/06/08 11:24:50;;;;;;;12.30;6.28;;;;;;;24.06;30.67;99745.59;6098395;23;20018;-89
2023/06/08 11:27:22;;;;;;;;;;;;;;;24.20;30.98;99803.50;6150489;23;20013;-89
2023/06/08 11:29:50;;;;;;;12.02;5.47;;;;;;;23.94;31.68;99774.69;6104340;23;19907;-91
2023/06/08 11:32:18;;;;;;;20.13;5.95;;;;;;;23.83;32.02;99774.63;6140254;23;20188;-94
2023/06/08 11:34:49;;;;;;;16.73;5.45;;;;;;;24.08;32.56;99759.97;6112099;23;20050;-85
2023/06/08 11:37:23;;;;;;;20.48;6.15;;;;;;;24.22;30.20;99732.09;6080007;23;20535;-89
2023/06/08 11:39:49;;;;;;;20.15;6.10;;;;;;;24.66;31.13;99756.13;6122972;23;20077;-86
2023/06/08 11:42:17;;;;;;;11.80;5.97;;;;;;;24.41;30.10;99728.16;6109311;23;20494;-92
2023/06/08 11:45:11;;;;;;;8.45;4.90;;;;;;;24.39;31.62;99781.63;6133585;23;20092;-88
2023/06/08 11:48:02;;;;;;;10.85;5.55;;;;;;;24.16;33.36;99783.94;6131155;23;20017;-88
2023/06/08 11:50:29;;;;;;;13.25;5.80;;;;;;;23.90;32.50;99768.28;6192074;23;20451;-90
2023/06/08 11:52:57;;;;;;;11.23;5.82;;;;;;;23.63;33.98;99711.88;6200100;23;20021;-89
2023/06/08 11:55:30;;;;;;;10.32;4.93;;;;;;;23.84;33.40;99739.94;6135738;23;20015;-89
2023/06/08 11:58:00;;;;;;;26.67;5.55;;;;;;;23.88;31.18;99756.72;6122301;23;20021;-92
2023/06/08 12:00:32;;;;;;;16.92;5.88;;;;;;;23.98;31.13;99772.72;6090378;23;20021;-93
2023/06/08 12:03:03;;;;;;;8.93;5.80;;;;;;;23.95;30.10;99730.81;6165854;23;20099;-91
2023/06/08 12:05:34;;;;;;;10.27;6.03;;;;;;;24.28;32.04;99729.72;6132660;23;20036;-88
2023/06/08 12:08:20;;;;;;;14.98;5.45;;;;;;;24.53;30.12;99721.38;6134257;23;20112;-89
2023/06/08 12:10:47;;;;;;;11.73;6.28;;;;;;;25.04;32.62;99732.19;6132950;23;20028;-89
2023/06/08 12:13:15;;;;;;;9.88;5.35;;;;;;;24.82;29.68;99730.59;6186123;23;20117;-88
2023/06/08 12:15:42;;;;;;;12.32;5.68;;;;;;;24.80;29.66;99756.16;6137192;23;20411;-90
2023/06/08 12:18:19;;;;;;;10.15;5.78;;;;;;;24.91;29.82;99730.19;6163032;23;20037;-90
2023/06/08 12:20:51;;;;;;;22.08;5.85;;;;;;;25.12;30.86;99726.63;6136095;23;20020;-91
2023/06/08 12:23:17;;;;;;;18.40;5.28;;;;;;;24.89;28.46;99685.03;6162625;23;20009;-89
2023/06/08 12:25:44;;;;;;;9.57;4.85;;;;;;;24.75;28.90;99708.22;6191256;23;20025;-89